KFFC

Details ICAO KFFC (FFC)
Name Atlanta Peachtree City Falcon Fld
Region United States
Timezone America/New_York (UTC-4.0)
Plans Departing 31
Arriving 35
Stats Elevation 808 ft / 246 m (AMSL)
Location 33.357246° -84.571831°
Runways 1
Magnetic Variation 4.994° W
Sunrise 2018-05-21 10:35:48 UTC / 2018-05-21 06:35:48 Local
Sunset 2018-05-22 00:36:50 UTC / 2018-05-21 20:36:50 Local
Advertisement - Login to hide

Runways

ID Width Length Bearing (true) Bearing (mag) Surface Threshold Offset Overrun Length
13 100 ft / 30 m 5,223 ft / 1,592 m 128.27° 133.26° Asphalt 0 ft / 0 m 0 ft / 0 m
31 100 ft / 30 m 5,223 ft / 1,592 m 308.27° 313.26° Asphalt 0 ft / 0 m 0 ft / 0 m

Approach Navaids

Runway Type Ident Frequency Range Bearing (true) Bearing (mag) Slope Elevation
31 Localiser FFC 111.95 MHz 18 nm / 33 km 308.29° 313.28° - 808 ft / 246 m (AMSL)
31 DME FFC 111.95 MHz 18 nm / 33 km - - - 808 ft / 246 m (AMSL)

Map

Weather


0- 5 10 15 20 25 30 35+ Temperature / ° C

Clouds and Precipitation
Forecast for 2018-05-21 18:00 UTC. Updated 2 hours ago

Ground ~20,000 ft ~40,000 ft Winds

METAR

KFFC 211653Z AUTO 11008KT 10SM SCT023 BKN028 BKN033 26/19 A3017 RMK AO2 SLP212 T02560194

TAF

Not found
Warning: Do not use this data for real-world aviation or navigation. No guarantee of current accuracy is given.